LFLL/LYS METAR and TAF weather

Enter ICAO airport designator
Station Type Date Time Source
LFLL METAR 2019/04/22 18:30 UTC NOAA

LFLL 221830Z 36004KT CAVOK 21/07 Q0999 NOSIG


Station Type Date Time Source
LFLL Decoded METAR 2019/04/22 18:30 UTC NOAA

Lyon / Satolas, France (LFLL) 45-44N 005-05E 240M
Apr 22, 2019 - 02:30 PM EDT / 2019.04.22 1830 UTC
Wind: from the N (360 degrees) at 5 MPH (4 KT):0
Visibility: greater than 7 mile(s):0
Temperature: 69 F (21 C)
Dew Point: 44 F (7 C)
Relative Humidity: 40%
Pressure (altimeter): 29.50 in. Hg (0999 hPa)
ob: LFLL 221830Z 36004KT CAVOK 21/07 Q0999 NOSIG
cycle: 18

Station Type Date Time Source
LFLL TAF 2019/04/22 18:21 UTC NOAA

TAF LFLL 221700Z 2218/2324 36008KT CAVOK
BECMG 2218/2221 18010KT
TEMPO 2314/2318 20015G25KT FEW065TCU

Example: see airport list